x

Dauphin Island, Al (dpia1) Weather Station

3:00pm - Sat 21st Oct 2017 All times are CDT. -5 hours from GMT.

  • Wind
    22mph, 23mph gusts
  • Air Temp 78°f
  • Sea Pressure 1018mb
  • Dauphin Island, Al
  • Dauphin Island, Al

More Historic Weather Station data

Upgrade to MSW Pro to gain access to the past 30 days of data for over 8000 Wavebouys and Weather Stations around the globe.

Join

Comparision Forecast

View Surf forecast
   
Sat 10/21 3:00pm 22 23 mph 1018mb 78f
2:00pm 21 25 mph 1018.6mb 78f
1:00pm 23 29 mph 1019.1mb 78f
12:00pm 25 28 mph 1019.8mb 78f
11:00am 23 25 mph 1019.9mb 78f
10:00am 17 23 mph 1019.7mb 78f
9:00am 18 20 mph 1019.2mb 79f
8:00am 15 17 mph 1018.7mb 78f
7:00am 13 14 mph 1018.1mb 73f
6:00am 10 11 mph 1017.7mb 73f
5:00am 11 13 mph 1017.4mb 73f
4:00am 10 13 mph 1017.4mb 73f
3:00am 13 14 mph 1017.5mb 73f
2:00am 9 10 mph 1018.2mb 74f
1:00am 11 13 mph 1018.1mb 75f
12:00am 11 13 mph 1018.6mb 75f
Fri 10/20 11:00pm 11 13 mph 1019.1mb 75f
10:00pm 9 10 mph 1019.2mb 76f
9:00pm 9 9 mph 1018.9mb 76f
8:00pm 8 9 mph 1018.7mb 76f
7:00pm 13 14 mph 1018.4mb 76f
6:00pm 13 15 mph 1018.4mb 77f
5:00pm 17 18 mph 1018.2mb 76f
4:00pm 18 21 mph 1018.2mb 76f
3:00pm 15 17 mph 1018.8mb 76f
2:00pm 16 18 mph 1019.3mb 75f
1:00pm 18 21 mph 1020.3mb 75f
12:00pm 16 20 mph 1020.9mb 75f
11:00am 16 18 mph 1021.3mb 74f
9:00am 20 22 mph 1021.6mb 69f
8:00am 18 21 mph 1021.3mb 69f
7:00am 18 21 mph 1020.8mb 69f
6:00am 17 20 mph 1020.4mb 69f
5:00am 17 20 mph 1020.4mb 70f
4:00am 17 18 mph 1020.1mb 70f
3:00am 17 18 mph 1020.5mb 70f
2:00am 17 18 mph 1021mb 71f
1:00am 14 16 mph 1021.1mb 72f
12:00am 16 18 mph 1021.2mb 73f
Thu 10/19 11:00pm 15 18 mph 1021.5mb 74f
10:00pm 14 16 mph 1021.5mb 74f
9:00pm 14 16 mph 1021.4mb 75f
8:00pm 14 15 mph 1020.8mb 76f
7:00pm  -  1 mph 1020.5mb 75f
6:00pm 1 2 mph 1020.2mb 76f
5:00pm  -  0 mph 1020mb 78f
4:00pm 3 5 mph 1020.3mb 76f
3:00pm 10 11 mph 1020.5mb 76f
2:00pm 9 10 mph 1021.2mb 76f
1:00pm 13 14 mph 1022.1mb 75f
12:00pm 13 14 mph 1022.8mb 73f
11:00am 13 14 mph 1023.1mb 72f
10:00am 11 13 mph 1023.1mb 70f
9:00am 16 17 mph 1022.3mb 69f
8:00am 14 15 mph 1021.5mb 68f
7:00am 15 16 mph 1021.2mb 68f
6:00am 16 17 mph 1020.7mb 68f
5:00am 14 14 mph 1020.3mb 69f
4:00am 14 15 mph 1020.1mb 68f
3:00am 15 17 mph 1020.5mb 69f
2:00am 16 18 mph 1020.6mb 69f
1:00am 15 17 mph 1021.2mb 70f
12:00am 15 18 mph 1021.6mb 71f
Wed 10/18 11:00pm 16 18 mph 1022.1mb 71f
10:00pm 10 11 mph 1022.2mb 72f
9:00pm 7 8 mph 1022mb 72f
8:00pm 2 3 mph 1021.7mb 72f
7:00pm 3 3 mph 1021.3mb 72f
6:00pm 7 8 mph 1020.8mb 72f
5:00pm 10 11 mph 1020.7mb 72f
4:00pm 8 9 mph 1020.8mb 71f
3:00pm 9 11 mph 1021.2mb 70f
2:00pm 9 11 mph 1021.6mb 68f
1:00pm 8 10 mph 1022.5mb 68f
12:00pm 9 11 mph 1023mb 67f
11:00am 13 15 mph 1023.3mb 66f
10:00am 17 21 mph 1023.2mb 65f
9:00am 20 22 mph 1023mb 64f
8:00am 21 24 mph 1022.6mb 65f
7:00am 21 23 mph 1022.1mb 64f
6:00am 21 24 mph 1021.5mb 65f
5:00am 21 22 mph 1021mb 66f
4:00am 20 22 mph 1020.5mb 67f
3:00am 21 23 mph 1020.6mb 67f
2:00am 20 23 mph 1020.9mb 68f
1:00am 20 22 mph 1021mb 69f
12:00am 22 23 mph 1021.5mb 69f
Tue 10/17 11:00pm 18 22 mph 1021.8mb 70f
10:00pm 20 23 mph 1021.9mb 70f